If you wish to contribute or participate in the discussions about articles you are invited to join SKYbrary as a registered user

 Actions

St Paul Island Airport

From SKYbrary Wiki

PASN
Airport
ICAO: PASN – IATA: SNP
Summary
Name St Paul Island Airport
Region North America
Territory Alaska US.gif
Location , Alaska
Serving St. Paul Island
Elevation 19.202 m
63 ft
63 ft19.202 m
Type medium airport
Coordinates 57° 10' 2.40" N, 170° 13' 13.60" W
Runways
Designator Length Width Surface ROPS
18/36 1981 m6,499.344 ft
46 m150.919 ft
ASP yes/yes


METAR
Observation PASN 110953Z AUTO 07023G32KT 7SM OVC008 04/02 A2888 RMK PK WND 06032/0944 RAE38 SLP779 P0000 T00390022 TSNO VIA AUTODIAL
Station St. Paul Island, St. Paul Island Airport
Date/Time 11 April 2019 09:53:00
Wind direction 70°
Wind speed 23 kts
Lowest cloud amount overcast
Temperature 3.9°C
Dew point 2.2°C
Humidity 88%
QNH hPa
Weather condition n/a